sensor_id;sensor_type;location;lat;lon;timestamp;temperature;humidity
4056;DHT22;2043;52.184;8.690;2022-09-25T00:00:00;21.60;76.30
4056;DHT22;2043;52.184;8.690;2022-09-25T00:02:29;21.60;76.30
4056;DHT22;2043;52.184;8.690;2022-09-25T00:04:56;21.60;76.30
4056;DHT22;2043;52.184;8.690;2022-09-25T00:07:24;21.60;76.30
4056;DHT22;2043;52.184;8.690;2022-09-25T00:09:51;21.60;76.30
4056;DHT22;2043;52.184;8.690;2022-09-25T00:12:17;21.60;76.30
4056;DHT22;2043;52.184;8.690;2022-09-25T00:14:51;21.60;76.30
4056;DHT22;2043;52.184;8.690;2022-09-25T00:17:20;21.60;76.30
4056;DHT22;2043;52.184;8.690;2022-09-25T00:19:50;21.60;76.30
4056;DHT22;2043;52.184;8.690;2022-09-25T00:22:23;21.60;76.30
4056;DHT22;2043;52.184;8.690;2022-09-25T00:24:56;21.60;76.30
4056;DHT22;2043;52.184;8.690;2022-09-25T00:27:23;21.60;76.30
4056;DHT22;2043;52.184;8.690;2022-09-25T00:29:52;21.60;76.30
4056;DHT22;2043;52.184;8.690;2022-09-25T00:32:25;21.60;76.30
4056;DHT22;2043;52.184;8.690;2022-09-25T00:34:56;21.60;76.30
4056;DHT22;2043;52.184;8.690;2022-09-25T00:37:26;21.60;76.30
4056;DHT22;2043;52.184;8.690;2022-09-25T00:39:55;21.60;76.30
4056;DHT22;2043;52.184;8.690;2022-09-25T00:42:22;21.60;76.30
4056;DHT22;2043;52.184;8.690;2022-09-25T00:52:58;21.60;76.30
4056;DHT22;2043;52.184;8.690;2022-09-25T00:55:39;21.60;76.30
4056;DHT22;2043;52.184;8.690;2022-09-25T00:58:08;21.60;76.30
4056;DHT22;2043;52.184;8.690;2022-09-25T01:00:43;21.60;76.30
4056;DHT22;2043;52.184;8.690;2022-09-25T01:03:12;21.60;76.30
4056;DHT22;2043;52.184;8.690;2022-09-25T01:05:46;21.60;76.30
4056;DHT22;2043;52.184;8.690;2022-09-25T01:08:20;21.60;76.30
4056;DHT22;2043;52.184;8.690;2022-09-25T01:10:48;21.60;76.30
4056;DHT22;2043;52.184;8.690;2022-09-25T01:13:15;21.60;76.30
4056;DHT22;2043;52.184;8.690;2022-09-25T01:21:35;21.60;76.30
4056;DHT22;2043;52.184;8.690;2022-09-25T01:24:22;21.60;76.30
4056;DHT22;2043;52.184;8.690;2022-09-25T01:29:33;21.60;76.30
4056;DHT22;2043;52.184;8.690;2022-09-25T01:34:47;21.60;76.30
4056;DHT22;2043;52.184;8.690;2022-09-25T01:37:39;21.60;76.30
4056;DHT22;2043;52.184;8.690;2022-09-25T01:40:31;21.60;76.30
4056;DHT22;2043;52.184;8.690;2022-09-25T01:43:09;21.60;76.30
4056;DHT22;2043;52.184;8.690;2022-09-25T01:46:01;21.60;76.30
4056;DHT22;2043;52.184;8.690;2022-09-25T01:48:35;21.60;76.30
4056;DHT22;2043;52.184;8.690;2022-09-25T01:51:18;21.60;76.30
4056;DHT22;2043;52.184;8.690;2022-09-25T01:53:54;21.50;76.30
4056;DHT22;2043;52.184;8.690;2022-09-25T01:56:45;21.50;76.30
4056;DHT22;2043;52.184;8.690;2022-09-25T02:01:54;21.50;76.30
4056;DHT22;2043;52.184;8.690;2022-09-25T02:04:35;21.50;76.30
4056;DHT22;2043;52.184;8.690;2022-09-25T02:07:10;21.50;76.30
4056;DHT22;2043;52.184;8.690;2022-09-25T02:09:47;21.50;76.30
4056;DHT22;2043;52.184;8.690;2022-09-25T02:12:26;21.50;76.30
4056;DHT22;2043;52.184;8.690;2022-09-25T02:15:02;21.50;76.30
4056;DHT22;2043;52.184;8.690;2022-09-25T02:17:42;21.50;76.30
4056;DHT22;2043;52.184;8.690;2022-09-25T02:20:31;21.50;76.30
4056;DHT22;2043;52.184;8.690;2022-09-25T02:25:39;21.50;76.30
4056;DHT22;2043;52.184;8.690;2022-09-25T02:28:11;21.50;76.30
4056;DHT22;2043;52.184;8.690;2022-09-25T02:30:38;21.50;76.30
4056;DHT22;2043;52.184;8.690;2022-09-25T02:33:10;21.50;76.30
4056;DHT22;2043;52.184;8.690;2022-09-25T02:35:38;21.50;76.30
4056;DHT22;2043;52.184;8.690;2022-09-25T02:38:08;21.50;76.30
4056;DHT22;2043;52.184;8.690;2022-09-25T02:40:55;21.50;76.30
4056;DHT22;2043;52.184;8.690;2022-09-25T02:46:43;21.50;76.30
4056;DHT22;2043;52.184;8.690;2022-09-25T02:51:55;21.50;76.30
4056;DHT22;2043;52.184;8.690;2022-09-25T02:57:22;21.50;76.30
4056;DHT22;2043;52.184;8.690;2022-09-25T02:59:59;21.50;76.30
4056;DHT22;2043;52.184;8.690;2022-09-25T03:02:33;21.50;76.30
4056;DHT22;2043;52.184;8.690;2022-09-25T03:05:03;21.50;76.30
4056;DHT22;2043;52.184;8.690;2022-09-25T03:07:34;21.50;76.30
4056;DHT22;2043;52.184;8.690;2022-09-25T03:10:21;21.50;76.30
4056;DHT22;2043;52.184;8.690;2022-09-25T03:12:51;21.50;76.30
4056;DHT22;2043;52.184;8.690;2022-09-25T03:15:23;21.50;76.30
4056;DHT22;2043;52.184;8.690;2022-09-25T03:17:50;21.50;76.30
4056;DHT22;2043;52.184;8.690;2022-09-25T03:20:22;21.50;76.30
4056;DHT22;2043;52.184;8.690;2022-09-25T03:22:49;21.50;76.30
4056;DHT22;2043;52.184;8.690;2022-09-25T03:25:16;21.50;76.30
4056;DHT22;2043;52.184;8.690;2022-09-25T03:27:50;21.50;76.30
4056;DHT22;2043;52.184;8.690;2022-09-25T03:30:22;21.50;76.30
4056;DHT22;2043;52.184;8.690;2022-09-25T03:32:49;21.50;76.30
4056;DHT22;2043;52.184;8.690;2022-09-25T03:35:18;21.50;76.30
4056;DHT22;2043;52.184;8.690;2022-09-25T03:37:46;21.50;76.30
4056;DHT22;2043;52.184;8.690;2022-09-25T03:40:13;21.50;76.30
4056;DHT22;2043;52.184;8.690;2022-09-25T03:42:42;21.50;76.30
4056;DHT22;2043;52.184;8.690;2022-09-25T03:45:14;21.50;76.30
4056;DHT22;2043;52.184;8.690;2022-09-25T03:47:41;21.50;76.30
4056;DHT22;2043;52.184;8.690;2022-09-25T03:50:08;21.40;76.30
4056;DHT22;2043;52.184;8.690;2022-09-25T03:52:42;21.50;76.30
4056;DHT22;2043;52.184;8.690;2022-09-25T03:55:15;21.50;76.30
4056;DHT22;2043;52.184;8.690;2022-09-25T03:57:44;21.50;76.30
4056;DHT22;2043;52.184;8.690;2022-09-25T04:00:17;21.50;76.30
4056;DHT22;2043;52.184;8.690;2022-09-25T04:02:46;21.40;76.30
4056;DHT22;2043;52.184;8.690;2022-09-25T04:05:13;21.50;76.30
4056;DHT22;2043;52.184;8.690;2022-09-25T04:07:43;21.50;76.30
4056;DHT22;2043;52.184;8.690;2022-09-25T04:10:10;21.40;76.30
4056;DHT22;2043;52.184;8.690;2022-09-25T04:12:37;21.40;76.30
4056;DHT22;2043;52.184;8.690;2022-09-25T04:15:09;21.40;76.30
4056;DHT22;2043;52.184;8.690;2022-09-25T04:17:39;21.40;76.30
4056;DHT22;2043;52.184;8.690;2022-09-25T04:20:06;21.40;76.30
4056;DHT22;2043;52.184;8.690;2022-09-25T04:22:35;21.40;76.30
4056;DHT22;2043;52.184;8.690;2022-09-25T04:25:12;21.40;76.30
4056;DHT22;2043;52.184;8.690;2022-09-25T04:27:40;21.40;76.30
4056;DHT22;2043;52.184;8.690;2022-09-25T04:30:07;21.40;76.30
4056;DHT22;2043;52.184;8.690;2022-09-25T04:32:41;21.40;76.30
4056;DHT22;2043;52.184;8.690;2022-09-25T04:35:28;21.40;76.40
4056;DHT22;2043;52.184;8.690;2022-09-25T04:37:55;21.40;76.30
4056;DHT22;2043;52.184;8.690;2022-09-25T04:40:23;21.40;76.30
4056;DHT22;2043;52.184;8.690;2022-09-25T04:42:57;21.40;76.30
4056;DHT22;2043;52.184;8.690;2022-09-25T04:45:29;21.40;76.30
4056;DHT22;2043;52.184;8.690;2022-09-25T04:48:00;21.40;76.30
4056;DHT22;2043;52.184;8.690;2022-09-25T04:50:28;21.40;76.40
4056;DHT22;2043;52.184;8.690;2022-09-25T04:53:01;21.40;76.40
4056;DHT22;2043;52.184;8.690;2022-09-25T04:55:31;21.40;76.50
4056;DHT22;2043;52.184;8.690;2022-09-25T04:58:03;21.40;76.40
4056;DHT22;2043;52.184;8.690;2022-09-25T05:00:31;21.40;76.40
4056;DHT22;2043;52.184;8.690;2022-09-25T05:02:58;21.40;76.50
4056;DHT22;2043;52.184;8.690;2022-09-25T05:05:31;21.40;76.50
4056;DHT22;2043;52.184;8.690;2022-09-25T05:07:59;21.40;76.50
4056;DHT22;2043;52.184;8.690;2022-09-25T05:10:32;21.40;76.40
4056;DHT22;2043;52.184;8.690;2022-09-25T05:13:06;21.40;76.50
4056;DHT22;2043;52.184;8.690;2022-09-25T05:15:37;21.40;76.50
4056;DHT22;2043;52.184;8.690;2022-09-25T05:18:06;21.40;76.50
4056;DHT22;2043;52.184;8.690;2022-09-25T05:20:37;21.40;76.50
4056;DHT22;2043;52.184;8.690;2022-09-25T05:23:06;21.40;76.50
4056;DHT22;2043;52.184;8.690;2022-09-25T05:25:36;21.40;76.50
4056;DHT22;2043;52.184;8.690;2022-09-25T05:28:05;21.40;76.50
4056;DHT22;2043;52.184;8.690;2022-09-25T05:30:38;21.40;76.50
4056;DHT22;2043;52.184;8.690;2022-09-25T05:33:09;21.40;76.50
4056;DHT22;2043;52.184;8.690;2022-09-25T05:35:41;21.40;76.50
4056;DHT22;2043;52.184;8.690;2022-09-25T05:38:11;21.40;76.50
4056;DHT22;2043;52.184;8.690;2022-09-25T05:40:42;21.40;76.50
4056;DHT22;2043;52.184;8.690;2022-09-25T05:43:12;21.40;76.50
4056;DHT22;2043;52.184;8.690;2022-09-25T05:45:51;21.40;76.50
4056;DHT22;2043;52.184;8.690;2022-09-25T05:48:21;21.40;76.50
4056;DHT22;2043;52.184;8.690;2022-09-25T05:50:57;21.40;76.50
4056;DHT22;2043;52.184;8.690;2022-09-25T05:53:24;21.40;76.50
4056;DHT22;2043;52.184;8.690;2022-09-25T05:55:58;21.40;76.50
4056;DHT22;2043;52.184;8.690;2022-09-25T05:58:28;21.40;76.50
4056;DHT22;2043;52.184;8.690;2022-09-25T06:01:03;21.40;76.50
4056;DHT22;2043;52.184;8.690;2022-09-25T06:03:36;21.40;76.50
4056;DHT22;2043;52.184;8.690;2022-09-25T06:06:06;21.40;76.50
4056;DHT22;2043;52.184;8.690;2022-09-25T06:08:36;21.40;76.50
4056;DHT22;2043;52.184;8.690;2022-09-25T06:11:05;21.40;76.50
4056;DHT22;2043;52.184;8.690;2022-09-25T06:13:36;21.40;76.50
4056;DHT22;2043;52.184;8.690;2022-09-25T06:16:04;21.40;76.50
4056;DHT22;2043;52.184;8.690;2022-09-25T06:18:40;21.40;76.50
4056;DHT22;2043;52.184;8.690;2022-09-25T06:21:14;21.40;76.50
4056;DHT22;2043;52.184;8.690;2022-09-25T06:23:43;21.40;76.50
4056;DHT22;2043;52.184;8.690;2022-09-25T06:26:11;21.40;76.50
4056;DHT22;2043;52.184;8.690;2022-09-25T06:28:41;21.40;76.50
4056;DHT22;2043;52.184;8.690;2022-09-25T06:31:10;21.40;76.50
4056;DHT22;2043;52.184;8.690;2022-09-25T06:33:40;21.40;76.50
4056;DHT22;2043;52.184;8.690;2022-09-25T06:36:12;21.40;76.50
4056;DHT22;2043;52.184;8.690;2022-09-25T06:38:42;21.40;76.50
4056;DHT22;2043;52.184;8.690;2022-09-25T06:41:11;21.40;76.50
4056;DHT22;2043;52.184;8.690;2022-09-25T06:43:38;21.40;76.50
4056;DHT22;2043;52.184;8.690;2022-09-25T06:46:07;21.40;76.50
4056;DHT22;2043;52.184;8.690;2022-09-25T06:48:40;21.40;76.50
4056;DHT22;2043;52.184;8.690;2022-09-25T06:51:08;21.30;76.50
4056;DHT22;2043;52.184;8.690;2022-09-25T06:53:35;21.40;76.50
4056;DHT22;2043;52.184;8.690;2022-09-25T06:56:07;21.40;76.50
4056;DHT22;2043;52.184;8.690;2022-09-25T06:58:38;21.40;76.50
4056;DHT22;2043;52.184;8.690;2022-09-25T07:01:04;21.40;76.50
4056;DHT22;2043;52.184;8.690;2022-09-25T07:03:36;21.40;76.50
4056;DHT22;2043;52.184;8.690;2022-09-25T07:06:17;21.40;76.60
4056;DHT22;2043;52.184;8.690;2022-09-25T07:08:51;21.40;76.50
4056;DHT22;2043;52.184;8.690;2022-09-25T07:11:24;21.40;76.60
4056;DHT22;2043;52.184;8.690;2022-09-25T07:13:54;21.40;76.60
4056;DHT22;2043;52.184;8.690;2022-09-25T07:16:28;21.40;76.60
4056;DHT22;2043;52.184;8.690;2022-09-25T07:18:59;21.40;76.60
4056;DHT22;2043;52.184;8.690;2022-09-25T07:21:29;21.40;76.60
4056;DHT22;2043;52.184;8.690;2022-09-25T07:24:00;21.40;76.60
4056;DHT22;2043;52.184;8.690;2022-09-25T07:26:33;21.40;76.60
4056;DHT22;2043;52.184;8.690;2022-09-25T07:29:06;21.40;76.60
4056;DHT22;2043;52.184;8.690;2022-09-25T07:31:36;21.40;76.60
4056;DHT22;2043;52.184;8.690;2022-09-25T07:34:08;21.40;76.60
4056;DHT22;2043;52.184;8.690;2022-09-25T07:36:45;21.40;76.60
4056;DHT22;2043;52.184;8.690;2022-09-25T07:39:13;21.40;76.60
4056;DHT22;2043;52.184;8.690;2022-09-25T07:41:44;21.40;76.60
4056;DHT22;2043;52.184;8.690;2022-09-25T07:44:14;21.40;76.60
4056;DHT22;2043;52.184;8.690;2022-09-25T07:47:01;21.40;76.60
4056;DHT22;2043;52.184;8.690;2022-09-25T07:49:31;21.40;76.60
4056;DHT22;2043;52.184;8.690;2022-09-25T07:51:58;21.40;76.60
4056;DHT22;2043;52.184;8.690;2022-09-25T07:54:25;21.40;76.60
4056;DHT22;2043;52.184;8.690;2022-09-25T07:56:54;21.40;76.60
4056;DHT22;2043;52.184;8.690;2022-09-25T07:59:24;21.40;76.60
4056;DHT22;2043;52.184;8.690;2022-09-25T08:01:53;21.40;76.60
4056;DHT22;2043;52.184;8.690;2022-09-25T08:04:22;21.40;76.60
4056;DHT22;2043;52.184;8.690;2022-09-25T08:06:49;21.40;76.60
4056;DHT22;2043;52.184;8.690;2022-09-25T08:09:17;21.40;76.60
4056;DHT22;2043;52.184;8.690;2022-09-25T08:11:47;21.40;76.60
4056;DHT22;2043;52.184;8.690;2022-09-25T08:14:14;21.40;76.60
4056;DHT22;2043;52.184;8.690;2022-09-25T08:16:41;21.40;76.60
4056;DHT22;2043;52.184;8.690;2022-09-25T08:19:11;21.40;76.60
4056;DHT22;2043;52.184;8.690;2022-09-25T08:21:42;21.40;76.60
4056;DHT22;2043;52.184;8.690;2022-09-25T08:24:10;21.40;76.70
4056;DHT22;2043;52.184;8.690;2022-09-25T08:26:37;21.40;76.60
4056;DHT22;2043;52.184;8.690;2022-09-25T08:29:05;21.40;76.60
4056;DHT22;2043;52.184;8.690;2022-09-25T08:31:34;21.40;76.70
4056;DHT22;2043;52.184;8.690;2022-09-25T08:34:01;21.40;76.70
4056;DHT22;2043;52.184;8.690;2022-09-25T08:36:48;21.40;76.70
4056;DHT22;2043;52.184;8.690;2022-09-25T08:39:16;21.40;76.70
4056;DHT22;2043;52.184;8.690;2022-09-25T08:41:50;21.40;76.70
4056;DHT22;2043;52.184;8.690;2022-09-25T08:44:26;21.40;76.60
4056;DHT22;2043;52.184;8.690;2022-09-25T08:47:40;21.40;76.70
4056;DHT22;2043;52.184;8.690;2022-09-25T08:50:17;21.40;76.60
4056;DHT22;2043;52.184;8.690;2022-09-25T08:52:54;21.40;76.60
4056;DHT22;2043;52.184;8.690;2022-09-25T08:55:29;21.40;76.60
4056;DHT22;2043;52.184;8.690;2022-09-25T08:58:28;21.40;76.60
4056;DHT22;2043;52.184;8.690;2022-09-25T09:01:06;21.40;76.50
4056;DHT22;2043;52.184;8.690;2022-09-25T09:03:49;21.40;76.60
4056;DHT22;2043;52.184;8.690;2022-09-25T09:06:17;21.40;76.60
4056;DHT22;2043;52.184;8.690;2022-09-25T09:08:54;21.40;76.60
4056;DHT22;2043;52.184;8.690;2022-09-25T09:11:46;21.40;76.60
4056;DHT22;2043;52.184;8.690;2022-09-25T09:14:19;21.40;76.60
4056;DHT22;2043;52.184;8.690;2022-09-25T09:16:49;21.40;76.60
4056;DHT22;2043;52.184;8.690;2022-09-25T09:19:17;21.50;76.60
4056;DHT22;2043;52.184;8.690;2022-09-25T09:22:13;21.40;76.60
4056;DHT22;2043;52.184;8.690;2022-09-25T09:25:30;21.50;76.60
4056;DHT22;2043;52.184;8.690;2022-09-25T09:28:01;21.50;76.60
4056;DHT22;2043;52.184;8.690;2022-09-25T09:33:44;21.50;76.60
4056;DHT22;2043;52.184;8.690;2022-09-25T09:36:32;21.50;76.60
4056;DHT22;2043;52.184;8.690;2022-09-25T09:45:10;21.50;76.60
4056;DHT22;2043;52.184;8.690;2022-09-25T09:50:48;21.50;76.60
4056;DHT22;2043;52.184;8.690;2022-09-25T09:55:55;21.50;76.60
4056;DHT22;2043;52.184;8.690;2022-09-25T10:01:04;21.50;76.60
4056;DHT22;2043;52.184;8.690;2022-09-25T10:04:18;21.50;76.60
4056;DHT22;2043;52.184;8.690;2022-09-25T10:07:02;21.50;76.60
4056;DHT22;2043;52.184;8.690;2022-09-25T10:09:30;21.50;76.60
4056;DHT22;2043;52.184;8.690;2022-09-25T10:12:05;21.50;76.60
4056;DHT22;2043;52.184;8.690;2022-09-25T10:14:38;21.50;76.60
4056;DHT22;2043;52.184;8.690;2022-09-25T10:17:12;21.50;76.60
4056;DHT22;2043;52.184;8.690;2022-09-25T10:19:50;21.50;76.60
4056;DHT22;2043;52.184;8.690;2022-09-25T10:22:41;21.50;76.60
4056;DHT22;2043;52.184;8.690;2022-09-25T10:25:09;21.50;76.70
4056;DHT22;2043;52.184;8.690;2022-09-25T10:27:38;21.50;76.60
4056;DHT22;2043;52.184;8.690;2022-09-25T10:30:17;21.50;76.60
4056;DHT22;2043;52.184;8.690;2022-09-25T10:32:50;21.50;76.60
4056;DHT22;2043;52.184;8.690;2022-09-25T10:35:44;21.50;76.60
4056;DHT22;2043;52.184;8.690;2022-09-25T10:38:36;21.50;76.60
4056;DHT22;2043;52.184;8.690;2022-09-25T10:41:15;21.50;76.60
4056;DHT22;2043;52.184;8.690;2022-09-25T10:43:55;21.50;76.60
4056;DHT22;2043;52.184;8.690;2022-09-25T10:46:33;21.50;76.70
4056;DHT22;2043;52.184;8.690;2022-09-25T10:49:26;21.50;76.70
4056;DHT22;2043;52.184;8.690;2022-09-25T10:52:23;21.50;76.70
4056;DHT22;2043;52.184;8.690;2022-09-25T10:54:49;21.60;76.70
4056;DHT22;2043;52.184;8.690;2022-09-25T10:57:26;21.50;76.70
4056;DHT22;2043;52.184;8.690;2022-09-25T11:00:18;21.60;76.70
4056;DHT22;2043;52.184;8.690;2022-09-25T11:02:57;21.50;76.70
4056;DHT22;2043;52.184;8.690;2022-09-25T11:05:32;21.60;76.70
4056;DHT22;2043;52.184;8.690;2022-09-25T11:08:06;21.60;76.70
4056;DHT22;2043;52.184;8.690;2022-09-25T11:10:49;21.50;76.70
4056;DHT22;2043;52.184;8.690;2022-09-25T11:13:26;21.60;76.70
4056;DHT22;2043;52.184;8.690;2022-09-25T11:16:07;21.60;76.70
4056;DHT22;2043;52.184;8.690;2022-09-25T11:21:32;21.60;76.70
4056;DHT22;2043;52.184;8.690;2022-09-25T11:24:12;21.60;76.70
4056;DHT22;2043;52.184;8.690;2022-09-25T11:26:51;21.60;76.70
4056;DHT22;2043;52.184;8.690;2022-09-25T11:29:36;21.60;76.70
4056;DHT22;2043;52.184;8.690;2022-09-25T11:40:55;21.60;76.70
4056;DHT22;2043;52.184;8.690;2022-09-25T11:47:21;21.60;76.80
4056;DHT22;2043;52.184;8.690;2022-09-25T11:49:58;21.60;76.80
4056;DHT22;2043;52.184;8.690;2022-09-25T11:52:52;21.60;76.70
4056;DHT22;2043;52.184;8.690;2022-09-25T11:56:20;21.60;76.70
4056;DHT22;2043;52.184;8.690;2022-09-25T12:01:40;21.60;76.80
4056;DHT22;2043;52.184;8.690;2022-09-25T12:04:28;21.60;76.80
4056;DHT22;2043;52.184;8.690;2022-09-25T12:15:21;21.60;76.80
4056;DHT22;2043;52.184;8.690;2022-09-25T12:18:02;21.60;76.80
4056;DHT22;2043;52.184;8.690;2022-09-25T12:40:17;21.60;76.90
4056;DHT22;2043;52.184;8.690;2022-09-25T12:43:09;21.70;76.90
4056;DHT22;2043;52.184;8.690;2022-09-25T12:51:47;21.60;77.00
4056;DHT22;2043;52.184;8.690;2022-09-25T12:54:30;21.70;77.00
4056;DHT22;2043;52.184;8.690;2022-09-25T13:00:21;21.70;77.00
4056;DHT22;2043;52.184;8.690;2022-09-25T13:05:37;21.70;77.00
4056;DHT22;2043;52.184;8.690;2022-09-25T13:10:52;21.70;77.00
4056;DHT22;2043;52.184;8.690;2022-09-25T13:13:25;21.70;76.90
4056;DHT22;2043;52.184;8.690;2022-09-25T13:15:59;21.70;77.00
4056;DHT22;2043;52.184;8.690;2022-09-25T13:18:33;21.70;76.90
4056;DHT22;2043;52.184;8.690;2022-09-25T13:21:24;21.70;76.90
4056;DHT22;2043;52.184;8.690;2022-09-25T13:23:52;21.70;76.90
4056;DHT22;2043;52.184;8.690;2022-09-25T13:26:22;21.70;76.90
4056;DHT22;2043;52.184;8.690;2022-09-25T13:31:25;21.70;76.90
4056;DHT22;2043;52.184;8.690;2022-09-25T13:34:03;21.70;76.90
4056;DHT22;2043;52.184;8.690;2022-09-25T13:36:55;21.70;76.90
4056;DHT22;2043;52.184;8.690;2022-09-25T13:39:27;21.70;76.90
4056;DHT22;2043;52.184;8.690;2022-09-25T13:45:24;21.70;76.90
4056;DHT22;2043;52.184;8.690;2022-09-25T13:48:08;21.70;76.90
4056;DHT22;2043;52.184;8.690;2022-09-25T13:50:49;21.70;76.90
4056;DHT22;2043;52.184;8.690;2022-09-25T13:53:57;21.70;76.90
4056;DHT22;2043;52.184;8.690;2022-09-25T14:01:44;21.80;76.80
4056;DHT22;2043;52.184;8.690;2022-09-25T14:06:55;21.80;76.80
4056;DHT22;2043;52.184;8.690;2022-09-25T14:09:28;21.90;76.90
4056;DHT22;2043;52.184;8.690;2022-09-25T14:15:03;22.00;76.90
4056;DHT22;2043;52.184;8.690;2022-09-25T14:17:35;22.00;76.90
4056;DHT22;2043;52.184;8.690;2022-09-25T14:20:30;22.00;76.80
4056;DHT22;2043;52.184;8.690;2022-09-25T14:23:12;22.00;76.80
4056;DHT22;2043;52.184;8.690;2022-09-25T14:25:42;22.00;76.80
4056;DHT22;2043;52.184;8.690;2022-09-25T14:28:25;22.00;76.80
4056;DHT22;2043;52.184;8.690;2022-09-25T14:42:26;22.00;76.90
4056;DHT22;2043;52.184;8.690;2022-09-25T14:47:54;22.00;77.00
4056;DHT22;2043;52.184;8.690;2022-09-25T14:50:37;22.00;77.00
4056;DHT22;2043;52.184;8.690;2022-09-25T14:53:20;22.00;77.00
4056;DHT22;2043;52.184;8.690;2022-09-25T14:55:59;22.00;77.00
4056;DHT22;2043;52.184;8.690;2022-09-25T14:58:45;22.00;77.00
4056;DHT22;2043;52.184;8.690;2022-09-25T15:01:29;22.00;77.00
4056;DHT22;2043;52.184;8.690;2022-09-25T15:04:05;22.00;77.00
4056;DHT22;2043;52.184;8.690;2022-09-25T15:06:37;22.00;76.90
4056;DHT22;2043;52.184;8.690;2022-09-25T15:09:40;22.00;76.90
4056;DHT22;2043;52.184;8.690;2022-09-25T15:12:25;22.00;76.90
4056;DHT22;2043;52.184;8.690;2022-09-25T15:15:03;22.00;76.90
4056;DHT22;2043;52.184;8.690;2022-09-25T15:17:44;22.10;76.90
4056;DHT22;2043;52.184;8.690;2022-09-25T15:20:33;22.10;76.90
4056;DHT22;2043;52.184;8.690;2022-09-25T15:23:06;22.10;76.90
4056;DHT22;2043;52.184;8.690;2022-09-25T15:25:38;22.10;76.90
4056;DHT22;2043;52.184;8.690;2022-09-25T15:28:06;22.10;76.80
4056;DHT22;2043;52.184;8.690;2022-09-25T15:30:35;22.10;76.80
4056;DHT22;2043;52.184;8.690;2022-09-25T15:33:26;22.10;76.80
4056;DHT22;2043;52.184;8.690;2022-09-25T15:36:17;22.10;76.80
4056;DHT22;2043;52.184;8.690;2022-09-25T15:38:56;22.10;76.80
4056;DHT22;2043;52.184;8.690;2022-09-25T15:41:28;22.10;76.80
4056;DHT22;2043;52.184;8.690;2022-09-25T15:44:24;22.10;76.80
4056;DHT22;2043;52.184;8.690;2022-09-25T15:46:55;22.20;76.70
4056;DHT22;2043;52.184;8.690;2022-09-25T15:49:45;22.20;76.70
4056;DHT22;2043;52.184;8.690;2022-09-25T15:52:22;22.20;76.70
4056;DHT22;2043;52.184;8.690;2022-09-25T15:55:12;22.20;76.60
4056;DHT22;2043;52.184;8.690;2022-09-25T15:57:46;22.20;76.60
4056;DHT22;2043;52.184;8.690;2022-09-25T16:00:24;22.20;76.60
4056;DHT22;2043;52.184;8.690;2022-09-25T16:03:22;22.20;76.60
4056;DHT22;2043;52.184;8.690;2022-09-25T16:06:15;22.30;76.50
4056;DHT22;2043;52.184;8.690;2022-09-25T16:08:46;22.30;76.60
4056;DHT22;2043;52.184;8.690;2022-09-25T16:11:23;22.30;76.60
4056;DHT22;2043;52.184;8.690;2022-09-25T16:14:18;22.30;76.60
4056;DHT22;2043;52.184;8.690;2022-09-25T16:16:51;22.30;76.60
4056;DHT22;2043;52.184;8.690;2022-09-25T16:21:57;22.30;76.60
4056;DHT22;2043;52.184;8.690;2022-09-25T16:24:27;22.30;76.60
4056;DHT22;2043;52.184;8.690;2022-09-25T16:27:02;22.30;76.60
4056;DHT22;2043;52.184;8.690;2022-09-25T16:29:38;22.30;76.60
4056;DHT22;2043;52.184;8.690;2022-09-25T16:32:12;22.30;76.60
4056;DHT22;2043;52.184;8.690;2022-09-25T16:34:56;22.30;76.60
4056;DHT22;2043;52.184;8.690;2022-09-25T16:37:32;22.30;76.60
4056;DHT22;2043;52.184;8.690;2022-09-25T16:40:27;22.20;76.60
4056;DHT22;2043;52.184;8.690;2022-09-25T16:42:58;22.20;76.60
4056;DHT22;2043;52.184;8.690;2022-09-25T16:45:30;22.20;76.60
4056;DHT22;2043;52.184;8.690;2022-09-25T16:48:34;22.20;76.60
4056;DHT22;2043;52.184;8.690;2022-09-25T16:51:13;22.20;76.60
4056;DHT22;2043;52.184;8.690;2022-09-25T16:53:46;22.20;76.60
4056;DHT22;2043;52.184;8.690;2022-09-25T16:56:31;22.20;76.60
4056;DHT22;2043;52.184;8.690;2022-09-25T16:58:58;22.20;76.60
4056;DHT22;2043;52.184;8.690;2022-09-25T17:01:29;22.20;76.60
4056;DHT22;2043;52.184;8.690;2022-09-25T17:03:59;22.20;76.60
4056;DHT22;2043;52.184;8.690;2022-09-25T17:06:26;22.20;76.60
4056;DHT22;2043;52.184;8.690;2022-09-25T17:09:04;22.20;76.60
4056;DHT22;2043;52.184;8.690;2022-09-25T17:11:40;22.20;76.60
4056;DHT22;2043;52.184;8.690;2022-09-25T17:14:19;22.20;76.60
4056;DHT22;2043;52.184;8.690;2022-09-25T17:16:55;22.20;76.60
4056;DHT22;2043;52.184;8.690;2022-09-25T17:19:26;22.20;76.60
4056;DHT22;2043;52.184;8.690;2022-09-25T17:21:53;22.20;76.60
4056;DHT22;2043;52.184;8.690;2022-09-25T17:24:25;22.20;76.60
4056;DHT22;2043;52.184;8.690;2022-09-25T17:26:53;22.20;76.70
4056;DHT22;2043;52.184;8.690;2022-09-25T17:29:25;22.10;76.70
4056;DHT22;2043;52.184;8.690;2022-09-25T17:31:54;22.10;76.70
4056;DHT22;2043;52.184;8.690;2022-09-25T17:34:22;22.10;76.60
4056;DHT22;2043;52.184;8.690;2022-09-25T17:36:59;22.10;76.80
4056;DHT22;2043;52.184;8.690;2022-09-25T17:39:28;22.10;76.80
4056;DHT22;2043;52.184;8.690;2022-09-25T17:41:56;22.10;76.80
4056;DHT22;2043;52.184;8.690;2022-09-25T17:44:25;22.10;77.10
4056;DHT22;2043;52.184;8.690;2022-09-25T17:46:58;22.10;77.00
4056;DHT22;2043;52.184;8.690;2022-09-25T17:51:58;22.10;77.10
4056;DHT22;2043;52.184;8.690;2022-09-25T17:54:28;22.10;77.00
4056;DHT22;2043;52.184;8.690;2022-09-25T17:56:58;22.10;77.10
4056;DHT22;2043;52.184;8.690;2022-09-25T17:59:30;22.10;77.10
4056;DHT22;2043;52.184;8.690;2022-09-25T18:01:57;22.10;77.10
4056;DHT22;2043;52.184;8.690;2022-09-25T18:04:30;22.10;77.00
4056;DHT22;2043;52.184;8.690;2022-09-25T18:06:57;22.10;77.00
4056;DHT22;2043;52.184;8.690;2022-09-25T18:09:26;22.10;77.00
4056;DHT22;2043;52.184;8.690;2022-09-25T18:11:55;22.10;77.00
4056;DHT22;2043;52.184;8.690;2022-09-25T18:14:31;22.10;77.00
4056;DHT22;2043;52.184;8.690;2022-09-25T18:16:59;22.10;77.00
4056;DHT22;2043;52.184;8.690;2022-09-25T18:19:32;22.10;77.00
4056;DHT22;2043;52.184;8.690;2022-09-25T18:22:20;22.10;77.00
4056;DHT22;2043;52.184;8.690;2022-09-25T18:24:48;22.10;77.00
4056;DHT22;2043;52.184;8.690;2022-09-25T18:27:28;22.00;77.00
4056;DHT22;2043;52.184;8.690;2022-09-25T18:29:59;22.00;76.90
4056;DHT22;2043;52.184;8.690;2022-09-25T18:32:26;22.00;77.00
4056;DHT22;2043;52.184;8.690;2022-09-25T18:34:59;22.00;76.90
4056;DHT22;2043;52.184;8.690;2022-09-25T18:37:31;22.00;76.90
4056;DHT22;2043;52.184;8.690;2022-09-25T18:40:02;22.00;76.90
4056;DHT22;2043;52.184;8.690;2022-09-25T18:42:29;22.00;76.90
4056;DHT22;2043;52.184;8.690;2022-09-25T18:44:56;22.00;76.90
4056;DHT22;2043;52.184;8.690;2022-09-25T18:47:30;22.00;76.90
4056;DHT22;2043;52.184;8.690;2022-09-25T18:50:03;22.00;76.90
4056;DHT22;2043;52.184;8.690;2022-09-25T18:52:33;22.00;76.90
4056;DHT22;2043;52.184;8.690;2022-09-25T18:55:00;22.00;76.90
4056;DHT22;2043;52.184;8.690;2022-09-25T18:57:29;22.00;76.90
4056;DHT22;2043;52.184;8.690;2022-09-25T18:59:58;22.00;76.90
4056;DHT22;2043;52.184;8.690;2022-09-25T19:02:29;22.00;76.90
4056;DHT22;2043;52.184;8.690;2022-09-25T19:04:59;21.90;76.90
4056;DHT22;2043;52.184;8.690;2022-09-25T19:07:31;21.90;76.90
4056;DHT22;2043;52.184;8.690;2022-09-25T19:09:58;21.90;76.90
4056;DHT22;2043;52.184;8.690;2022-09-25T19:12:44;21.90;76.90
4056;DHT22;2043;52.184;8.690;2022-09-25T19:15:13;21.90;76.90
4056;DHT22;2043;52.184;8.690;2022-09-25T19:17:43;21.90;76.90